Marlinton, West Virginia
Current Conditions -  °F | °C
As of 11:55 PM on Friday 28 Nov 2014 (Local Time) from KHSP Reporting Station
Clear Clear  
Wind Chill: 15°   Ceiling: Unl
Heat Index: 25°   Visibility: 10mi
Dew Point:   Wind: 12mph
Humidity: 39%   Direction: 250°WSW
Pressure: 30.08"   Gusts: NA
Location:  38.22°N, 80.09°W
Report Text: KHSP 290455Z AUTO 25010KT 10SM CLR M04/M16 A3008 RMK AO2 T10371158 410351080
Loading
Personal Weather Stations






























Interactive Weather Map New forecast layout! Learn more

10-Day Weather Forecast

Advertisements
Track Severe Weather on mobile